Bedworth, United Kingdom
Current Conditions -  °F | °C
As of 4:20 PM on Tuesday 21 Oct 2014 (Local Time) from EGBE Reporting Station
Rain Showers Rain Showers  
Wind Chill: 40°   Ceiling: Unl
Heat Index: 48°   Visibility: 6mi
Dew Point: 43°   Wind: 25mph
Humidity: 82%   Direction: 310°NW
Pressure: 29.83"   Gusts: 39mph
Location:  52.48°N, 1.47°W
Report Text: EGBE 211520Z 31022G34KT 9999 VCSH FEW018 SCT038 09/06 Q1010 RESHRA
Loading
Personal Weather Stations






























Interactive Weather Map
Tropical Storm Tracking
New forecast layout! Learn more

10-Day Weather Forecast

Advertisements
Track Severe Weather on mobile